PWSweather.com
Personal Weather Stations
Station Observations
KOMOKA
Komoka Village, Komoka, ON N0L IRO

Komoka VillageKomoka, ON N0L IRO

Lat: 42.9542444, Lon: -81.4348861

Elevation: 805

Station Type: Davis Vantage Pro 2

Latest ConditionsUpdated 7:17:34 PM EST Sunday, Nov 19, 2017
Currently Today's Max Today's Min Today's Average
Temperature 32.5°F0.3°C 38.3°F3.5°C 31.6°F-0.2°C 35.7°F2.1°C
Dew Point 27.0°F-2.8°C 36.1°F2.3°C 25.3°F-3.7°C 31.7°F-0.2°C
Winds 4.0 mph WNW6.4 kmh WNW 9.0 mph WNW14.5 kmh WNW - 4.8 mph 7.7 kmh
Wind Gusts 12.0 mph19.3 kmh 31.0 mph49.9 kmh - -
Humidity 80% 92% 73% 86%
Pressure 29.88 in1011.9 mb 29.88 in1011.9 mb 29.31 in992.6 mb -
Precipitation - 0.06 in1.5 mm - -
Hour Temp Dew Point Humidity Winds Wind Gusts Pressure Precip Precip Rate Daily Precip Total
07:17 PM 32.5°F0.3°C 27.0°F-2.8°C 80% 4.0 mph WNW6.4 kmh WNW 12.0 mph19.3 kmh 29.88 in1011.9 mb 0.00 in0.0 mm 0.00 in0.0 mm 0.06 in1.5 mm
07:10 PM 32.4°F0.2°C 27.1°F-2.7°C 81% 1.0 mph NW1.6 kmh NW 12.0 mph19.3 kmh 29.88 in1011.9 mb 0.00 in0.0 mm 0.00 in0.0 mm 0.06 in1.5 mm
07:03 PM 32.2°F0.1°C 27.1°F-2.7°C 82% 1.0 mph WNW1.6 kmh WNW 4.0 mph6.4 kmh 29.88 in1011.9 mb 0.00 in0.0 mm 0.00 in0.0 mm 0.06 in1.5 mm
06:56 PM 32.0°F0.0°C 27.1°F-2.7°C 82% 1.0 mph WNW1.6 kmh WNW 5.0 mph8.0 kmh 29.88 in1011.9 mb 0.00 in0.0 mm 0.00 in0.0 mm 0.06 in1.5 mm
06:49 PM 31.8°F-0.1°C 27.3°F-2.6°C 83% 3.0 mph NW4.8 kmh NW 8.0 mph12.9 kmh 29.87 in1011.5 mb 0.00 in0.0 mm 0.00 in0.0 mm 0.06 in1.5 mm
06:42 PM 31.8°F-0.1°C 27.0°F-2.8°C 82% 3.0 mph NW4.8 kmh NW 13.0 mph20.9 kmh 29.87 in1011.5 mb 0.00 in0.0 mm 0.00 in0.0 mm 0.06 in1.5 mm
06:35 PM 31.6°F-0.2°C 26.8°F-2.9°C 82% 3.0 mph NW4.8 kmh NW 13.0 mph20.9 kmh 29.87 in1011.5 mb 0.00 in0.0 mm 0.00 in0.0 mm 0.06 in1.5 mm
06:28 PM 31.8°F-0.1°C 27.0°F-2.8°C 82% 5.0 mph NW8.0 kmh NW 23.0 mph37.0 kmh 29.86 in1011.2 mb 0.00 in0.0 mm 0.00 in0.0 mm 0.06 in1.5 mm
06:21 PM 32.4°F0.2°C 27.0°F-2.8°C 80% 9.0 mph NW14.5 kmh NW 23.0 mph37.0 kmh 29.86 in1011.2 mb 0.00 in0.0 mm 0.00 in0.0 mm 0.06 in1.5 mm
06:14 PM 33.1°F0.6°C 26.2°F-3.2°C 76% 8.0 mph WNW12.9 kmh WNW 21.0 mph33.8 kmh 29.86 in1011.2 mb 0.00 in0.0 mm 0.00 in0.0 mm 0.06 in1.5 mm
06:07 PM 33.1°F0.6°C 25.3°F-3.7°C 73% 5.0 mph WNW8.0 kmh WNW 16.0 mph25.7 kmh 29.85 in1010.8 mb 0.00 in0.0 mm 0.00 in0.0 mm 0.06 in1.5 mm
06:00 PM 33.1°F0.6°C 26.1°F-3.3°C 75% 5.0 mph WNW8.0 kmh WNW 20.0 mph32.2 kmh 29.85 in1010.8 mb 0.00 in0.0 mm 0.00 in0.0 mm 0.06 in1.5 mm
05:53 PM 33.1°F0.6°C 26.6°F-3.0°C 77% 4.0 mph WNW6.4 kmh WNW 20.0 mph32.2 kmh 29.85 in1010.8 mb 0.00 in0.0 mm 0.00 in0.0 mm 0.06 in1.5 mm
05:46 PM 33.1°F0.6°C 26.6°F-3.0°C 77% 4.0 mph W6.4 kmh W 16.0 mph25.7 kmh 29.84 in1010.5 mb 0.00 in0.0 mm 0.00 in0.0 mm 0.06 in1.5 mm
05:39 PM 33.1°F0.6°C 27.0°F-2.8°C 78% 7.0 mph W11.3 kmh W 19.0 mph30.6 kmh 29.84 in1010.5 mb 0.00 in0.0 mm 0.00 in0.0 mm 0.06 in1.5 mm
05:32 PM 32.7°F0.4°C 26.8°F-2.9°C 78% 7.0 mph W11.3 kmh W 19.0 mph30.6 kmh 29.84 in1010.5 mb 0.00 in0.0 mm 0.00 in0.0 mm 0.06 in1.5 mm
05:25 PM 32.7°F0.4°C 26.6°F-3.0°C 78% 5.0 mph WNW8.0 kmh WNW 16.0 mph25.7 kmh 29.84 in1010.5 mb 0.00 in0.0 mm 0.00 in0.0 mm 0.06 in1.5 mm
05:18 PM 32.9°F0.5°C 27.1°F-2.7°C 79% 7.0 mph WNW11.3 kmh WNW 24.0 mph38.6 kmh 29.84 in1010.5 mb 0.00 in0.0 mm 0.00 in0.0 mm 0.06 in1.5 mm
05:11 PM 33.1°F0.6°C 27.9°F-2.3°C 81% 3.0 mph WNW4.8 kmh WNW 12.0 mph19.3 kmh 29.83 in1010.2 mb 0.00 in0.0 mm 0.00 in0.0 mm 0.06 in1.5 mm
05:04 PM 32.7°F0.4°C 28.2°F-2.1°C 83% 4.0 mph WNW6.4 kmh WNW 9.0 mph14.5 kmh 29.83 in1010.2 mb 0.00 in0.0 mm 0.00 in0.0 mm 0.06 in1.5 mm
04:57 PM 32.5°F0.3°C 28.6°F-1.9°C 85% 3.0 mph WNW4.8 kmh WNW 9.0 mph14.5 kmh 29.83 in1010.2 mb 0.00 in0.0 mm 0.00 in0.0 mm 0.06 in1.5 mm
04:50 PM 32.4°F0.2°C 29.5°F-1.4°C 89% Calm Calm 7.0 mph11.3 kmh 29.83 in1010.2 mb 0.00 in0.0 mm 0.00 in0.0 mm 0.06 in1.5 mm
04:43 PM 32.4°F0.2°C 29.7°F-1.3°C 90% Calm Calm 5.0 mph8.0 kmh 29.83 in1010.2 mb 0.00 in0.0 mm 0.00 in0.0 mm 0.06 in1.5 mm
04:36 PM 32.4°F0.2°C 29.5°F-1.4°C 89% Calm Calm 5.0 mph8.0 kmh 29.83 in1010.2 mb 0.00 in0.0 mm 0.00 in0.0 mm 0.06 in1.5 mm
04:29 PM 32.4°F0.2°C 29.5°F-1.4°C 89% 1.0 mph WSW1.6 kmh WSW 5.0 mph8.0 kmh 29.83 in1010.2 mb 0.00 in0.0 mm 0.00 in0.0 mm 0.06 in1.5 mm
04:22 PM 32.4°F0.2°C 29.3°F-1.5°C 88% 3.0 mph W4.8 kmh W 8.0 mph12.9 kmh 29.82 in1009.8 mb 0.00 in0.0 mm 0.00 in0.0 mm 0.06 in1.5 mm
04:15 PM 32.4°F0.2°C 29.1°F-1.6°C 88% 3.0 mph WNW4.8 kmh WNW 8.0 mph12.9 kmh 29.82 in1009.8 mb 0.00 in0.0 mm 0.00 in0.0 mm 0.06 in1.5 mm
04:08 PM 32.4°F0.2°C 28.9°F-1.7°C 87% 4.0 mph WNW6.4 kmh WNW 15.0 mph24.1 kmh 29.82 in1009.8 mb 0.00 in0.0 mm 0.00 in0.0 mm 0.06 in1.5 mm
04:01 PM 32.4°F0.2°C 28.8°F-1.8°C 86% 5.0 mph WNW8.0 kmh WNW 16.0 mph25.7 kmh 29.82 in1009.8 mb 0.00 in0.0 mm 0.00 in0.0 mm 0.06 in1.5 mm
03:54 PM 32.5°F0.3°C 28.2°F-2.1°C 84% 5.0 mph WNW8.0 kmh WNW 16.0 mph25.7 kmh 29.82 in1009.8 mb 0.00 in0.0 mm 0.00 in0.0 mm 0.06 in1.5 mm
03:47 PM 33.8°F1.0°C 29.1°F-1.6°C 83% 7.0 mph WNW11.3 kmh WNW 29.0 mph46.7 kmh 29.81 in1009.5 mb 0.00 in0.0 mm 0.00 in0.0 mm 0.06 in1.5 mm
03:40 PM 34.5°F1.4°C 28.6°F-1.9°C 79% 5.0 mph WNW8.0 kmh WNW 16.0 mph25.7 kmh 29.81 in1009.5 mb 0.00 in0.0 mm 0.00 in0.0 mm 0.06 in1.5 mm
03:33 PM 34.5°F1.4°C 28.0°F-2.2°C 77% 7.0 mph WNW11.3 kmh WNW 21.0 mph33.8 kmh 29.80 in1009.1 mb 0.00 in0.0 mm 0.00 in0.0 mm 0.06 in1.5 mm
03:26 PM 34.5°F1.4°C 27.9°F-2.3°C 76% 8.0 mph WNW12.9 kmh WNW 25.0 mph40.2 kmh 29.80 in1009.1 mb 0.00 in0.0 mm 0.00 in0.0 mm 0.06 in1.5 mm
03:19 PM 34.5°F1.4°C 28.4°F-2.0°C 78% 7.0 mph WNW11.3 kmh WNW 20.0 mph32.2 kmh 29.79 in1008.8 mb 0.00 in0.0 mm 0.00 in0.0 mm 0.06 in1.5 mm
03:12 PM 34.5°F1.4°C 28.9°F-1.7°C 80% 8.0 mph WNW12.9 kmh WNW 24.0 mph38.6 kmh 29.79 in1008.8 mb 0.00 in0.0 mm 0.00 in0.0 mm 0.06 in1.5 mm
03:05 PM 34.3°F1.3°C 29.7°F-1.3°C 83% 5.0 mph NW8.0 kmh NW 20.0 mph32.2 kmh 29.79 in1008.8 mb 0.00 in0.0 mm 0.00 in0.0 mm 0.06 in1.5 mm
02:58 PM 34.2°F1.2°C 30.2°F-1.0°C 85% 5.0 mph NW8.0 kmh NW 16.0 mph25.7 kmh 29.78 in1008.5 mb 0.00 in0.0 mm 0.00 in0.0 mm 0.06 in1.5 mm
02:51 PM 34.2°F1.2°C 30.2°F-1.0°C 85% 7.0 mph WNW11.3 kmh WNW 19.0 mph30.6 kmh 29.77 in1008.1 mb 0.00 in0.0 mm 0.00 in0.0 mm 0.06 in1.5 mm
02:44 PM 34.3°F1.3°C 30.2°F-1.0°C 85% 7.0 mph NW11.3 kmh NW 17.0 mph27.4 kmh 29.78 in1008.5 mb 0.00 in0.0 mm 0.00 in0.0 mm 0.06 in1.5 mm
02:37 PM 34.3°F1.3°C 29.5°F-1.4°C 82% 5.0 mph WNW8.0 kmh WNW 20.0 mph32.2 kmh 29.78 in1008.5 mb 0.00 in0.0 mm 0.00 in0.0 mm 0.06 in1.5 mm
02:30 PM 34.5°F1.4°C 29.7°F-1.3°C 82% 4.0 mph WNW6.4 kmh WNW 16.0 mph25.7 kmh 29.78 in1008.5 mb 0.00 in0.0 mm 0.00 in0.0 mm 0.06 in1.5 mm
02:23 PM 35.1°F1.7°C 29.5°F-1.4°C 80% 7.0 mph WNW11.3 kmh WNW 17.0 mph27.4 kmh 29.78 in1008.5 mb 0.00 in0.0 mm 0.00 in0.0 mm 0.06 in1.5 mm
02:16 PM 35.2°F1.8°C 29.1°F-1.6°C 78% 8.0 mph WNW12.9 kmh WNW 24.0 mph38.6 kmh 29.77 in1008.1 mb 0.00 in0.0 mm 0.00 in0.0 mm 0.06 in1.5 mm
02:09 PM 35.4°F1.9°C 29.7°F-1.3°C 79% 7.0 mph WNW11.3 kmh WNW 16.0 mph25.7 kmh 29.77 in1008.1 mb 0.00 in0.0 mm 0.00 in0.0 mm 0.06 in1.5 mm
02:02 PM 35.6°F2.0°C 30.0°F-1.1°C 80% 7.0 mph WNW11.3 kmh WNW 19.0 mph30.6 kmh 29.77 in1008.1 mb 0.00 in0.0 mm 0.00 in0.0 mm 0.06 in1.5 mm
01:55 PM 35.8°F2.1°C 30.2°F-1.0°C 80% 7.0 mph WNW11.3 kmh WNW 23.0 mph37.0 kmh 29.77 in1008.1 mb 0.00 in0.0 mm 0.00 in0.0 mm 0.06 in1.5 mm
01:48 PM 36.0°F2.2°C 30.4°F-0.9°C 80% 9.0 mph WNW14.5 kmh WNW 23.0 mph37.0 kmh 29.77 in1008.1 mb 0.00 in0.0 mm 0.00 in0.0 mm 0.06 in1.5 mm
01:41 PM 36.0°F2.2°C 30.4°F-0.9°C 80% 7.0 mph WNW11.3 kmh WNW 20.0 mph32.2 kmh 29.77 in1008.1 mb 0.00 in0.0 mm 0.00 in0.0 mm 0.06 in1.5 mm
01:34 PM 36.0°F2.2°C 30.2°F-1.0°C 79% 4.0 mph WNW6.4 kmh WNW 13.0 mph20.9 kmh 29.77 in1008.1 mb 0.00 in0.0 mm 0.00 in0.0 mm 0.06 in1.5 mm
01:27 PM 36.1°F2.3°C 30.0°F-1.1°C 78% 7.0 mph WNW11.3 kmh WNW 16.0 mph25.7 kmh 29.77 in1008.1 mb 0.00 in0.0 mm 0.00 in0.0 mm 0.06 in1.5 mm
01:20 PM 36.5°F2.5°C 29.7°F-1.3°C 76% 7.0 mph WNW11.3 kmh WNW 19.0 mph30.6 kmh 29.77 in1008.1 mb 0.00 in0.0 mm 0.00 in0.0 mm 0.06 in1.5 mm
01:13 PM 36.9°F2.7°C 30.0°F-1.1°C 76% 4.0 mph WNW6.4 kmh WNW 19.0 mph30.6 kmh 29.76 in1007.8 mb 0.00 in0.0 mm 0.00 in0.0 mm 0.06 in1.5 mm
01:06 PM 36.9°F2.7°C 30.0°F-1.1°C 76% 4.0 mph WNW6.4 kmh WNW 15.0 mph24.1 kmh 29.76 in1007.8 mb 0.00 in0.0 mm 0.00 in0.0 mm 0.06 in1.5 mm
12:59 PM 37.0°F2.8°C 29.8°F-1.2°C 75% 5.0 mph WNW8.0 kmh WNW 17.0 mph27.4 kmh 29.76 in1007.8 mb 0.00 in0.0 mm 0.00 in0.0 mm 0.06 in1.5 mm
12:52 PM 37.2°F2.9°C 30.4°F-0.9°C 76% 5.0 mph NW8.0 kmh NW 23.0 mph37.0 kmh 29.76 in1007.8 mb 0.00 in0.0 mm 0.00 in0.0 mm 0.06 in1.5 mm
12:45 PM 37.4°F3.0°C 29.8°F-1.2°C 74% 8.0 mph WNW12.9 kmh WNW 23.0 mph37.0 kmh 29.75 in1007.5 mb 0.00 in0.0 mm 0.00 in0.0 mm 0.06 in1.5 mm
12:38 PM 37.6°F3.1°C 30.4°F-0.9°C 75% 8.0 mph WNW12.9 kmh WNW 20.0 mph32.2 kmh 29.75 in1007.5 mb 0.00 in0.0 mm 0.00 in0.0 mm 0.06 in1.5 mm
12:31 PM 37.8°F3.2°C 30.9°F-0.6°C 76% 8.0 mph WNW12.9 kmh WNW 20.0 mph32.2 kmh 29.75 in1007.5 mb 0.00 in0.0 mm 0.00 in0.0 mm 0.06 in1.5 mm
12:24 PM 37.9°F3.3°C 31.3°F-0.4°C 77% 8.0 mph WNW12.9 kmh WNW 23.0 mph37.0 kmh 29.75 in1007.5 mb 0.00 in0.0 mm 0.00 in0.0 mm 0.06 in1.5 mm
12:17 PM 38.3°F3.5°C 32.0°F0.0°C 78% 5.0 mph WNW8.0 kmh WNW 17.0 mph27.4 kmh 29.75 in1007.5 mb 0.00 in0.0 mm 0.00 in0.0 mm 0.06 in1.5 mm
12:03 PM 37.6°F3.1°C 32.7°F0.4°C 83% 5.0 mph WNW8.0 kmh WNW 17.0 mph27.4 kmh 29.75 in1007.5 mb 0.00 in0.0 mm 0.00 in0.0 mm 0.06 in1.5 mm
11:56 AM 36.5°F2.5°C 31.8°F-0.1°C 83% 5.0 mph WNW8.0 kmh WNW 17.0 mph27.4 kmh 29.75 in1007.5 mb 0.00 in0.0 mm 0.00 in0.0 mm 0.06 in1.5 mm
11:49 AM 36.1°F2.3°C 32.4°F0.2°C 86% 4.0 mph WNW6.4 kmh WNW 13.0 mph20.9 kmh 29.75 in1007.5 mb 0.00 in0.0 mm 0.00 in0.0 mm 0.06 in1.5 mm
11:42 AM 36.1°F2.3°C 32.7°F0.4°C 87% 4.0 mph W6.4 kmh W 15.0 mph24.1 kmh 29.75 in1007.5 mb 0.00 in0.0 mm 0.00 in0.0 mm 0.06 in1.5 mm
11:35 AM 36.0°F2.2°C 32.5°F0.3°C 87% 4.0 mph WNW6.4 kmh WNW 15.0 mph24.1 kmh 29.76 in1007.8 mb 0.00 in0.0 mm 0.00 in0.0 mm 0.06 in1.5 mm
11:28 AM 35.8°F2.1°C 32.4°F0.2°C 87% 4.0 mph WNW6.4 kmh WNW 11.0 mph17.7 kmh 29.76 in1007.8 mb 0.00 in0.0 mm 0.00 in0.0 mm 0.06 in1.5 mm
11:21 AM 35.8°F2.1°C 32.0°F0.0°C 86% 4.0 mph WNW6.4 kmh WNW 12.0 mph19.3 kmh 29.75 in1007.5 mb 0.00 in0.0 mm 0.00 in0.0 mm 0.06 in1.5 mm
11:14 AM 36.0°F2.2°C 31.8°F-0.1°C 85% 5.0 mph W8.0 kmh W 16.0 mph25.7 kmh 29.75 in1007.5 mb 0.00 in0.0 mm 0.00 in0.0 mm 0.06 in1.5 mm
11:07 AM 36.3°F2.4°C 32.4°F0.2°C 85% 5.0 mph WNW8.0 kmh WNW 19.0 mph30.6 kmh 29.76 in1007.8 mb 0.00 in0.0 mm 0.00 in0.0 mm 0.06 in1.5 mm
11:00 AM 36.7°F2.6°C 32.2°F0.1°C 84% 1.0 mph NW1.6 kmh NW 16.0 mph25.7 kmh 29.75 in1007.5 mb 0.00 in0.0 mm 0.00 in0.0 mm 0.06 in1.5 mm
10:53 AM 36.7°F2.6°C 32.0°F0.0°C 83% 3.0 mph WNW4.8 kmh WNW 9.0 mph14.5 kmh 29.75 in1007.5 mb 0.00 in0.0 mm 0.00 in0.0 mm 0.06 in1.5 mm
10:46 AM 36.7°F2.6°C 31.6°F-0.2°C 82% 4.0 mph WNW6.4 kmh WNW 12.0 mph19.3 kmh 29.75 in1007.5 mb 0.00 in0.0 mm 0.00 in0.0 mm 0.06 in1.5 mm
10:39 AM 36.5°F2.5°C 31.5°F-0.3°C 82% 3.0 mph WNW4.8 kmh WNW 12.0 mph19.3 kmh 29.75 in1007.5 mb 0.00 in0.0 mm 0.00 in0.0 mm 0.06 in1.5 mm
10:32 AM 36.3°F2.4°C 31.5°F-0.3°C 82% 3.0 mph NW4.8 kmh NW 12.0 mph19.3 kmh 29.74 in1007.1 mb 0.00 in0.0 mm 0.00 in0.0 mm 0.06 in1.5 mm
10:25 AM 36.3°F2.4°C 31.1°F-0.5°C 81% 4.0 mph WNW6.4 kmh WNW 16.0 mph25.7 kmh 29.74 in1007.1 mb 0.00 in0.0 mm 0.00 in0.0 mm 0.06 in1.5 mm
10:18 AM 36.5°F2.5°C 30.9°F-0.6°C 80% 4.0 mph WNW6.4 kmh WNW 16.0 mph25.7 kmh 29.74 in1007.1 mb 0.00 in0.0 mm 0.00 in0.0 mm 0.06 in1.5 mm
10:11 AM 36.5°F2.5°C 30.6°F-0.8°C 79% 7.0 mph WNW11.3 kmh WNW 16.0 mph25.7 kmh 29.74 in1007.1 mb 0.00 in0.0 mm 0.00 in0.0 mm 0.06 in1.5 mm
10:04 AM 36.5°F2.5°C 30.9°F-0.6°C 80% 8.0 mph WNW12.9 kmh WNW 19.0 mph30.6 kmh 29.74 in1007.1 mb 0.00 in0.0 mm 0.00 in0.0 mm 0.06 in1.5 mm
09:57 AM 36.3°F2.4°C 30.7°F-0.7°C 80% 7.0 mph WNW11.3 kmh WNW 17.0 mph27.4 kmh 29.73 in1006.8 mb 0.00 in0.0 mm 0.00 in0.0 mm 0.06 in1.5 mm
09:50 AM 36.3°F2.4°C 30.7°F-0.7°C 80% 5.0 mph WNW8.0 kmh WNW 17.0 mph27.4 kmh 29.73 in1006.8 mb 0.00 in0.0 mm 0.00 in0.0 mm 0.06 in1.5 mm
09:43 AM 36.1°F2.3°C 30.6°F-0.8°C 80% 5.0 mph WNW8.0 kmh WNW 23.0 mph37.0 kmh 29.73 in1006.8 mb 0.00 in0.0 mm 0.00 in0.0 mm 0.06 in1.5 mm
09:36 AM 36.1°F2.3°C 30.9°F-0.6°C 81% 5.0 mph WNW8.0 kmh WNW 23.0 mph37.0 kmh 29.73 in1006.8 mb 0.00 in0.0 mm 0.00 in0.0 mm 0.06 in1.5 mm
09:29 AM 36.1°F2.3°C 30.9°F-0.6°C 81% 7.0 mph NW11.3 kmh NW 15.0 mph24.1 kmh 29.73 in1006.8 mb 0.00 in0.0 mm 0.00 in0.0 mm 0.06 in1.5 mm
09:22 AM 36.0°F2.2°C 30.7°F-0.7°C 81% 7.0 mph WNW11.3 kmh WNW 16.0 mph25.7 kmh 29.72 in1006.4 mb 0.00 in0.0 mm 0.00 in0.0 mm 0.06 in1.5 mm
09:15 AM 36.0°F2.2°C 30.9°F-0.6°C 82% 5.0 mph WNW8.0 kmh WNW 16.0 mph25.7 kmh 29.72 in1006.4 mb 0.00 in0.0 mm 0.00 in0.0 mm 0.06 in1.5 mm
09:08 AM 35.8°F2.1°C 30.9°F-0.6°C 82% 5.0 mph WNW8.0 kmh WNW 16.0 mph25.7 kmh 29.71 in1006.1 mb 0.00 in0.0 mm 0.00 in0.0 mm 0.06 in1.5 mm
09:01 AM 35.8°F2.1°C 31.1°F-0.5°C 83% 7.0 mph WNW11.3 kmh WNW 20.0 mph32.2 kmh 29.71 in1006.1 mb 0.00 in0.0 mm 0.00 in0.0 mm 0.06 in1.5 mm
08:54 AM 35.8°F2.1°C 31.3°F-0.4°C 84% 5.0 mph WNW8.0 kmh WNW 19.0 mph30.6 kmh 29.71 in1006.1 mb 0.00 in0.0 mm 0.00 in0.0 mm 0.06 in1.5 mm
08:47 AM 35.8°F2.1°C 31.6°F-0.2°C 85% 7.0 mph WNW11.3 kmh WNW 16.0 mph25.7 kmh 29.70 in1005.8 mb 0.00 in0.0 mm 0.00 in0.0 mm 0.06 in1.5 mm
08:40 AM 35.8°F2.1°C 31.6°F-0.2°C 85% 7.0 mph WNW11.3 kmh WNW 17.0 mph27.4 kmh 29.70 in1005.8 mb 0.00 in0.0 mm 0.00 in0.0 mm 0.06 in1.5 mm
08:33 AM 35.8°F2.1°C 31.6°F-0.2°C 85% 4.0 mph WNW6.4 kmh WNW 16.0 mph25.7 kmh 29.70 in1005.8 mb 0.00 in0.0 mm 0.00 in0.0 mm 0.06 in1.5 mm
08:26 AM 35.6°F2.0°C 31.5°F-0.3°C 85% 4.0 mph WNW6.4 kmh WNW 16.0 mph25.7 kmh 29.69 in1005.4 mb 0.00 in0.0 mm 0.00 in0.0 mm 0.06 in1.5 mm
08:19 AM 35.6°F2.0°C 31.5°F-0.3°C 85% 5.0 mph WNW8.0 kmh WNW 16.0 mph25.7 kmh 29.69 in1005.4 mb 0.00 in0.0 mm 0.00 in0.0 mm 0.06 in1.5 mm
08:12 AM 35.8°F2.1°C 32.0°F0.0°C 86% 4.0 mph WNW6.4 kmh WNW 13.0 mph20.9 kmh 29.69 in1005.4 mb 0.00 in0.0 mm 0.00 in0.0 mm 0.06 in1.5 mm
08:05 AM 35.8°F2.1°C 32.2°F0.1°C 87% 4.0 mph WNW6.4 kmh WNW 13.0 mph20.9 kmh 29.68 in1005.1 mb 0.00 in0.0 mm 0.00 in0.0 mm 0.06 in1.5 mm
07:58 AM 35.8°F2.1°C 32.4°F0.2°C 87% 4.0 mph WNW6.4 kmh WNW 12.0 mph19.3 kmh 29.68 in1005.1 mb 0.00 in0.0 mm 0.00 in0.0 mm 0.06 in1.5 mm
07:51 AM 35.8°F2.1°C 32.5°F0.3°C 88% 5.0 mph WNW8.0 kmh WNW 16.0 mph25.7 kmh 29.68 in1005.1 mb 0.00 in0.0 mm 0.00 in0.0 mm 0.06 in1.5 mm
07:44 AM 35.8°F2.1°C 32.5°F0.3°C 88% 4.0 mph WNW6.4 kmh WNW 12.0 mph19.3 kmh 29.67 in1004.7 mb 0.00 in0.0 mm 0.00 in0.0 mm 0.06 in1.5 mm
07:37 AM 35.8°F2.1°C 32.5°F0.3°C 88% 4.0 mph WNW6.4 kmh WNW 12.0 mph19.3 kmh 29.67 in1004.7 mb 0.00 in0.0 mm 0.00 in0.0 mm 0.06 in1.5 mm
07:30 AM 35.8°F2.1°C 32.9°F0.5°C 89% 4.0 mph NW6.4 kmh NW 16.0 mph25.7 kmh 29.66 in1004.4 mb 0.00 in0.0 mm 0.00 in0.0 mm 0.06 in1.5 mm
07:23 AM 35.8°F2.1°C 32.9°F0.5°C 89% 4.0 mph WNW6.4 kmh WNW 15.0 mph24.1 kmh 29.66 in1004.4 mb 0.00 in0.0 mm 0.00 in0.0 mm 0.06 in1.5 mm
07:16 AM 36.0°F2.2°C 33.3°F0.7°C 90% 4.0 mph WNW6.4 kmh WNW 21.0 mph33.8 kmh 29.66 in1004.4 mb 0.00 in0.0 mm 0.00 in0.0 mm 0.06 in1.5 mm
07:09 AM 36.0°F2.2°C 33.3°F0.7°C 90% 4.0 mph NW6.4 kmh NW 21.0 mph33.8 kmh 29.66 in1004.4 mb 0.00 in0.0 mm 0.00 in0.0 mm 0.06 in1.5 mm
07:02 AM 36.0°F2.2°C 33.3°F0.7°C 90% 5.0 mph WNW8.0 kmh WNW 17.0 mph27.4 kmh 29.65 in1004.1 mb 0.00 in0.0 mm 0.00 in0.0 mm 0.06 in1.5 mm
06:55 AM 35.8°F2.1°C 33.4°F0.8°C 91% 7.0 mph WNW11.3 kmh WNW 20.0 mph32.2 kmh 29.65 in1004.1 mb 0.00 in0.0 mm 0.00 in0.0 mm 0.06 in1.5 mm
06:48 AM 35.8°F2.1°C 33.4°F0.8°C 91% 7.0 mph NW11.3 kmh NW 20.0 mph32.2 kmh 29.64 in1003.7 mb 0.01 in0.3 mm 0.00 in0.0 mm 0.06 in1.5 mm
06:41 AM 35.8°F2.1°C 33.6°F0.9°C 92% 7.0 mph NW11.3 kmh NW 17.0 mph27.4 kmh 29.64 in1003.7 mb 0.01 in0.3 mm 0.00 in0.0 mm 0.06 in1.5 mm
06:34 AM 35.8°F2.1°C 33.6°F0.9°C 92% 7.0 mph WNW11.3 kmh WNW 20.0 mph32.2 kmh 29.63 in1003.4 mb 0.01 in0.3 mm 0.00 in0.0 mm 0.06 in1.5 mm
06:27 AM 35.4°F1.9°C 33.4°F0.8°C 92% 5.0 mph NW8.0 kmh NW 20.0 mph32.2 kmh 29.63 in1003.4 mb 0.02 in0.5 mm 0.00 in0.0 mm 0.06 in1.5 mm
06:20 AM 35.4°F1.9°C 33.3°F0.7°C 92% 5.0 mph NW8.0 kmh NW 16.0 mph25.7 kmh 29.62 in1003.0 mb 0.02 in0.5 mm 0.00 in0.0 mm 0.06 in1.5 mm
06:13 AM 35.1°F1.7°C 33.1°F0.6°C 92% 3.0 mph NW4.8 kmh NW 12.0 mph19.3 kmh 29.62 in1003.0 mb 0.02 in0.5 mm 0.00 in0.0 mm 0.06 in1.5 mm
06:06 AM 35.1°F1.7°C 32.9°F0.5°C 92% 3.0 mph NW4.8 kmh NW 9.0 mph14.5 kmh 29.61 in1002.7 mb 0.02 in0.5 mm 0.00 in0.0 mm 0.06 in1.5 mm
05:59 AM 34.9°F1.6°C 32.9°F0.5°C 92% 4.0 mph NW6.4 kmh NW 17.0 mph27.4 kmh 29.61 in1002.7 mb 0.02 in0.5 mm 0.00 in0.0 mm 0.06 in1.5 mm
05:52 AM 34.9°F1.6°C 32.9°F0.5°C 92% 4.0 mph NW6.4 kmh NW 21.0 mph33.8 kmh 29.61 in1002.7 mb 0.02 in0.5 mm 0.00 in0.0 mm 0.06 in1.5 mm
05:45 AM 34.9°F1.6°C 32.9°F0.5°C 92% 4.0 mph NW6.4 kmh NW 17.0 mph27.4 kmh 29.61 in1002.7 mb 0.02 in0.5 mm 0.00 in0.0 mm 0.05 in1.3 mm
05:38 AM 34.9°F1.6°C 32.9°F0.5°C 92% 5.0 mph NW8.0 kmh NW 20.0 mph32.2 kmh 29.60 in1002.4 mb 0.02 in0.5 mm 0.00 in0.0 mm 0.05 in1.3 mm
05:31 AM 35.1°F1.7°C 32.9°F0.5°C 92% 5.0 mph WNW8.0 kmh WNW 17.0 mph27.4 kmh 29.60 in1002.4 mb 0.02 in0.5 mm 0.00 in0.0 mm 0.05 in1.3 mm
05:24 AM 35.2°F1.8°C 33.1°F0.6°C 92% 7.0 mph WNW11.3 kmh WNW 19.0 mph30.6 kmh 29.59 in1002.0 mb 0.02 in0.5 mm 0.00 in0.0 mm 0.04 in1.0 mm
05:17 AM 35.4°F1.9°C 33.3°F0.7°C 92% 5.0 mph NW8.0 kmh NW 17.0 mph27.4 kmh 29.59 in1002.0 mb 0.02 in0.5 mm 0.00 in0.0 mm 0.04 in1.0 mm
05:10 AM 35.8°F2.1°C 33.6°F0.9°C 92% 5.0 mph NW8.0 kmh NW 23.0 mph37.0 kmh 29.58 in1001.7 mb 0.02 in0.5 mm 0.00 in0.0 mm 0.04 in1.0 mm
05:03 AM 35.8°F2.1°C 33.6°F0.9°C 92% 4.0 mph NW6.4 kmh NW 13.0 mph20.9 kmh 29.58 in1001.7 mb 0.02 in0.5 mm 0.00 in0.0 mm 0.04 in1.0 mm
04:56 AM 35.8°F2.1°C 33.6°F0.9°C 92% 4.0 mph NW6.4 kmh NW 19.0 mph30.6 kmh 29.57 in1001.4 mb 0.02 in0.5 mm 0.09 in2.3 mm 0.04 in1.0 mm
04:49 AM 36.0°F2.2°C 34.0°F1.1°C 92% 5.0 mph NW8.0 kmh NW 19.0 mph30.6 kmh 29.57 in1001.4 mb 0.01 in0.3 mm 0.00 in0.0 mm 0.03 in0.8 mm
04:42 AM 36.3°F2.4°C 34.3°F1.3°C 92% 5.0 mph NW8.0 kmh NW 15.0 mph24.1 kmh 29.56 in1001.0 mb 0.01 in0.3 mm 0.09 in2.3 mm 0.03 in0.8 mm
04:35 AM 36.9°F2.7°C 34.9°F1.6°C 92% 7.0 mph WNW11.3 kmh WNW 15.0 mph24.1 kmh 29.56 in1001.0 mb 0.00 in0.0 mm 0.00 in0.0 mm 0.02 in0.5 mm
04:28 AM 37.0°F2.8°C 34.7°F1.5°C 91% 5.0 mph WNW8.0 kmh WNW 16.0 mph25.7 kmh 29.54 in1000.3 mb 0.00 in0.0 mm 0.00 in0.0 mm 0.02 in0.5 mm
04:21 AM 37.4°F3.0°C 35.1°F1.7°C 91% 7.0 mph NW11.3 kmh NW 28.0 mph45.1 kmh 29.54 in1000.3 mb 0.00 in0.0 mm 0.00 in0.0 mm 0.02 in0.5 mm
04:14 AM 37.6°F3.1°C 35.1°F1.7°C 91% 7.0 mph NW11.3 kmh NW 28.0 mph45.1 kmh 29.54 in1000.3 mb 0.00 in0.0 mm 0.00 in0.0 mm 0.02 in0.5 mm
04:07 AM 37.6°F3.1°C 35.2°F1.8°C 91% 5.0 mph NW8.0 kmh NW 19.0 mph30.6 kmh 29.53 in1000.0 mb 0.00 in0.0 mm 0.00 in0.0 mm 0.02 in0.5 mm
04:00 AM 37.8°F3.2°C 35.2°F1.8°C 91% 5.0 mph NW8.0 kmh NW 23.0 mph37.0 kmh 29.52 in999.7 mb 0.00 in0.0 mm 0.00 in0.0 mm 0.02 in0.5 mm
03:53 AM 37.8°F3.2°C 35.2°F1.8°C 91% 3.0 mph NW4.8 kmh NW 16.0 mph25.7 kmh 29.52 in999.7 mb 0.00 in0.0 mm 0.00 in0.0 mm 0.02 in0.5 mm
03:46 AM 37.8°F3.2°C 35.4°F1.9°C 91% 4.0 mph NW6.4 kmh NW 16.0 mph25.7 kmh 29.51 in999.3 mb 0.00 in0.0 mm 0.00 in0.0 mm 0.02 in0.5 mm
03:39 AM 37.8°F3.2°C 35.6°F2.0°C 92% 4.0 mph NW6.4 kmh NW 16.0 mph25.7 kmh 29.51 in999.3 mb 0.00 in0.0 mm 0.00 in0.0 mm 0.02 in0.5 mm
03:32 AM 37.9°F3.3°C 35.8°F2.1°C 92% 3.0 mph NW4.8 kmh NW 17.0 mph27.4 kmh 29.50 in999.0 mb 0.00 in0.0 mm 0.00 in0.0 mm 0.02 in0.5 mm
03:25 AM 37.9°F3.3°C 35.8°F2.1°C 92% 4.0 mph NW6.4 kmh NW 24.0 mph38.6 kmh 29.50 in999.0 mb 0.00 in0.0 mm 0.00 in0.0 mm 0.02 in0.5 mm
03:18 AM 37.9°F3.3°C 35.8°F2.1°C 92% 5.0 mph NW8.0 kmh NW 21.0 mph33.8 kmh 29.49 in998.6 mb 0.00 in0.0 mm 0.00 in0.0 mm 0.02 in0.5 mm
03:11 AM 37.9°F3.3°C 36.0°F2.2°C 92% 7.0 mph NW11.3 kmh NW 27.0 mph43.5 kmh 29.48 in998.3 mb 0.01 in0.3 mm 0.00 in0.0 mm 0.02 in0.5 mm
03:04 AM 38.1°F3.4°C 36.0°F2.2°C 92% 5.0 mph NW8.0 kmh NW 27.0 mph43.5 kmh 29.47 in998.0 mb 0.01 in0.3 mm 0.00 in0.0 mm 0.02 in0.5 mm
02:57 AM 38.1°F3.4°C 36.1°F2.3°C 92% 4.0 mph NW6.4 kmh NW 21.0 mph33.8 kmh 29.47 in998.0 mb 0.01 in0.3 mm 0.00 in0.0 mm 0.02 in0.5 mm
02:50 AM 38.1°F3.4°C 36.1°F2.3°C 92% 5.0 mph NW8.0 kmh NW 21.0 mph33.8 kmh 29.46 in997.6 mb 0.01 in0.3 mm 0.00 in0.0 mm 0.02 in0.5 mm
02:43 AM 38.1°F3.4°C 36.1°F2.3°C 92% 5.0 mph NW8.0 kmh NW 23.0 mph37.0 kmh 29.46 in997.6 mb 0.02 in0.5 mm 0.00 in0.0 mm 0.02 in0.5 mm
02:36 AM 38.1°F3.4°C 36.1°F2.3°C 92% 5.0 mph NW8.0 kmh NW 21.0 mph33.8 kmh 29.44 in997.0 mb 0.02 in0.5 mm 0.00 in0.0 mm 0.02 in0.5 mm
02:29 AM 38.1°F3.4°C 35.8°F2.1°C 91% 5.0 mph NW8.0 kmh NW 21.0 mph33.8 kmh 29.44 in997.0 mb 0.02 in0.5 mm 0.00 in0.0 mm 0.02 in0.5 mm
02:22 AM 38.1°F3.4°C 35.8°F2.1°C 91% 5.0 mph NW8.0 kmh NW 20.0 mph32.2 kmh 29.43 in996.6 mb 0.02 in0.5 mm 0.00 in0.0 mm 0.02 in0.5 mm
02:15 AM 38.1°F3.4°C 35.8°F2.1°C 91% 7.0 mph NW11.3 kmh NW 31.0 mph49.9 kmh 29.42 in996.3 mb 0.02 in0.5 mm 0.09 in2.3 mm 0.02 in0.5 mm
02:08 AM 38.1°F3.4°C 35.8°F2.1°C 91% 7.0 mph NW11.3 kmh NW 31.0 mph49.9 kmh 29.41 in995.9 mb 0.01 in0.3 mm 0.00 in0.0 mm 0.02 in0.5 mm
02:01 AM 37.8°F3.2°C 35.4°F1.9°C 91% 3.0 mph NW4.8 kmh NW 15.0 mph24.1 kmh 29.40 in995.6 mb 0.01 in0.3 mm 0.00 in0.0 mm 0.02 in0.5 mm
01:54 AM 37.8°F3.2°C 35.2°F1.8°C 91% 3.0 mph NW4.8 kmh NW 16.0 mph25.7 kmh 29.39 in995.3 mb 0.01 in0.3 mm 0.00 in0.0 mm 0.02 in0.5 mm
01:47 AM 37.8°F3.2°C 35.2°F1.8°C 91% 3.0 mph NW4.8 kmh NW 13.0 mph20.9 kmh 29.39 in995.3 mb 0.01 in0.3 mm 0.09 in2.3 mm 0.02 in0.5 mm
01:40 AM 37.8°F3.2°C 35.2°F1.8°C 91% 1.0 mph NW1.6 kmh NW 13.0 mph20.9 kmh 29.38 in994.9 mb 0.00 in0.0 mm 0.00 in0.0 mm 0.01 in0.3 mm
01:33 AM 37.6°F3.1°C 35.2°F1.8°C 91% 3.0 mph NW4.8 kmh NW 17.0 mph27.4 kmh 29.37 in994.6 mb 0.00 in0.0 mm 0.00 in0.0 mm 0.01 in0.3 mm
01:26 AM 37.6°F3.1°C 35.1°F1.7°C 91% 3.0 mph NW4.8 kmh NW 17.0 mph27.4 kmh 29.37 in994.6 mb 0.00 in0.0 mm 0.00 in0.0 mm 0.01 in0.3 mm
01:19 AM 37.6°F3.1°C 35.1°F1.7°C 91% 3.0 mph NW4.8 kmh NW 9.0 mph14.5 kmh 29.36 in994.2 mb 0.00 in0.0 mm 0.00 in0.0 mm 0.01 in0.3 mm
01:12 AM 37.6°F3.1°C 35.1°F1.7°C 91% 1.0 mph NW1.6 kmh NW 9.0 mph14.5 kmh 29.36 in994.2 mb 0.00 in0.0 mm 0.00 in0.0 mm 0.01 in0.3 mm
01:05 AM 37.6°F3.1°C 35.1°F1.7°C 91% 3.0 mph NW4.8 kmh NW 9.0 mph14.5 kmh 29.36 in994.2 mb 0.01 in0.3 mm 0.00 in0.0 mm 0.01 in0.3 mm
12:58 AM 37.4°F3.0°C 35.1°F1.7°C 91% 3.0 mph NW4.8 kmh NW 15.0 mph24.1 kmh 29.35 in993.9 mb 0.01 in0.3 mm 0.00 in0.0 mm 0.01 in0.3 mm
12:51 AM 37.4°F3.0°C 35.1°F1.7°C 91% 1.0 mph NNW1.6 kmh NNW 9.0 mph14.5 kmh 29.34 in993.6 mb 0.02 in0.5 mm 0.00 in0.0 mm 0.01 in0.3 mm
12:44 AM 37.4°F3.0°C 35.1°F1.7°C 91% 3.0 mph NW4.8 kmh NW 12.0 mph19.3 kmh 29.34 in993.6 mb 0.02 in0.5 mm 0.00 in0.0 mm 0.01 in0.3 mm
12:37 AM 37.2°F2.9°C 34.9°F1.6°C 91% 3.0 mph NW4.8 kmh NW 15.0 mph24.1 kmh 29.34 in993.6 mb 0.02 in0.5 mm 0.00 in0.0 mm 0.01 in0.3 mm
12:30 AM 37.0°F2.8°C 34.7°F1.5°C 91% 3.0 mph NW4.8 kmh NW 20.0 mph32.2 kmh 29.33 in993.2 mb 0.03 in0.8 mm 0.00 in0.0 mm 0.01 in0.3 mm
12:23 AM 37.0°F2.8°C 34.7°F1.5°C 91% 3.0 mph NW4.8 kmh NW 12.0 mph19.3 kmh 29.33 in993.2 mb 0.04 in1.0 mm 0.00 in0.0 mm 0.01 in0.3 mm
12:16 AM 36.9°F2.7°C 34.5°F1.4°C 91% 3.0 mph NW4.8 kmh NW 19.0 mph30.6 kmh 29.32 in992.9 mb 0.05 in1.3 mm 0.00 in0.0 mm 0.01 in0.3 mm
12:09 AM 36.9°F2.7°C 34.9°F1.6°C 92% 3.0 mph NW4.8 kmh NW 23.0 mph37.0 kmh 29.32 in992.9 mb 0.05 in1.3 mm 0.09 in2.3 mm 0.01 in0.3 mm
12:02 AM 36.9°F2.7°C 34.9°F1.6°C 92% 3.0 mph NW4.8 kmh NW 15.0 mph24.1 kmh 29.31 in992.6 mb 0.04 in1.0 mm 1.20 in30.5 mm 0.04 in1.0 mm